sensor_id;sensor_type;location;lat;lon;timestamp;P1;durP1;ratioP1;P2;durP2;ratioP2
81306;SDS011;70775;50.846;3.224;2023-12-20T00:00:02;20.75;;;5.45;;
81306;SDS011;70775;50.846;3.224;2023-12-20T00:05:50;22.98;;;5.88;;
81306;SDS011;70775;50.846;3.224;2023-12-20T00:08:16;20.50;;;5.47;;
81306;SDS011;70775;50.846;3.224;2023-12-20T00:10:43;24.92;;;5.72;;
81306;SDS011;70775;50.846;3.224;2023-12-20T00:16:19;18.67;;;5.43;;
81306;SDS011;70775;50.846;3.224;2023-12-20T00:18:44;18.45;;;4.68;;
81306;SDS011;70775;50.846;3.224;2023-12-20T00:21:10;24.73;;;5.75;;
81306;SDS011;70775;50.846;3.224;2023-12-20T00:23:36;20.00;;;4.85;;
81306;SDS011;70775;50.846;3.224;2023-12-20T00:28:58;23.67;;;5.75;;
81306;SDS011;70775;50.846;3.224;2023-12-20T00:31:27;22.13;;;5.40;;
81306;SDS011;70775;50.846;3.224;2023-12-20T00:33:53;14.82;;;3.80;;
81306;SDS011;70775;50.846;3.224;2023-12-20T00:36:19;17.48;;;4.40;;
81306;SDS011;70775;50.846;3.224;2023-12-20T00:38:48;17.88;;;4.13;;
81306;SDS011;70775;50.846;3.224;2023-12-20T00:41:14;18.45;;;4.47;;
81306;SDS011;70775;50.846;3.224;2023-12-20T00:43:40;15.80;;;4.43;;
81306;SDS011;70775;50.846;3.224;2023-12-20T00:46:06;18.65;;;4.43;;
81306;SDS011;70775;50.846;3.224;2023-12-20T00:48:32;13.65;;;4.85;;
81306;SDS011;70775;50.846;3.224;2023-12-20T00:56:28;14.48;;;4.57;;
81306;SDS011;70775;50.846;3.224;2023-12-20T00:58:54;16.25;;;4.30;;
81306;SDS011;70775;50.846;3.224;2023-12-20T01:01:19;21.33;;;4.80;;
81306;SDS011;70775;50.846;3.224;2023-12-20T01:03:47;12.30;;;4.32;;
81306;SDS011;70775;50.846;3.224;2023-12-20T01:06:14;20.83;;;5.97;;
81306;SDS011;70775;50.846;3.224;2023-12-20T01:08:40;19.17;;;4.40;;
81306;SDS011;70775;50.846;3.224;2023-12-20T01:11:06;18.63;;;5.07;;
81306;SDS011;70775;50.846;3.224;2023-12-20T01:13:32;20.48;;;4.13;;
81306;SDS011;70775;50.846;3.224;2023-12-20T01:16:15;11.75;;;3.08;;
81306;SDS011;70775;50.846;3.224;2023-12-20T01:18:41;15.55;;;4.45;;
81306;SDS011;70775;50.846;3.224;2023-12-20T01:21:07;22.92;;;5.30;;
81306;SDS011;70775;50.846;3.224;2023-12-20T01:23:32;16.23;;;3.58;;
81306;SDS011;70775;50.846;3.224;2023-12-20T01:25:58;14.57;;;4.03;;
81306;SDS011;70775;50.846;3.224;2023-12-20T01:28:25;16.50;;;4.15;;
81306;SDS011;70775;50.846;3.224;2023-12-20T01:30:51;16.80;;;3.95;;
81306;SDS011;70775;50.846;3.224;2023-12-20T01:33:17;18.50;;;3.53;;
81306;SDS011;70775;50.846;3.224;2023-12-20T01:35:45;6.88;;;2.90;;
81306;SDS011;70775;50.846;3.224;2023-12-20T01:38:10;14.40;;;3.53;;
81306;SDS011;70775;50.846;3.224;2023-12-20T01:43:32;16.45;;;3.30;;
81306;SDS011;70775;50.846;3.224;2023-12-20T01:45:57;16.67;;;4.18;;
81306;SDS011;70775;50.846;3.224;2023-12-20T01:48:24;14.45;;;4.13;;
81306;SDS011;70775;50.846;3.224;2023-12-20T01:50:51;13.68;;;3.45;;
81306;SDS011;70775;50.846;3.224;2023-12-20T01:53:18;15.70;;;3.53;;
81306;SDS011;70775;50.846;3.224;2023-12-20T01:55:45;16.17;;;3.35;;
81306;SDS011;70775;50.846;3.224;2023-12-20T01:58:13;12.27;;;3.22;;
81306;SDS011;70775;50.846;3.224;2023-12-20T02:00:40;15.27;;;3.42;;
81306;SDS011;70775;50.846;3.224;2023-12-20T02:03:06;15.63;;;3.50;;
81306;SDS011;70775;50.846;3.224;2023-12-20T02:05:34;23.13;;;4.40;;
81306;SDS011;70775;50.846;3.224;2023-12-20T02:08:00;21.58;;;3.85;;
81306;SDS011;70775;50.846;3.224;2023-12-20T02:10:26;13.00;;;3.38;;
81306;SDS011;70775;50.846;3.224;2023-12-20T02:12:52;19.25;;;4.15;;
81306;SDS011;70775;50.846;3.224;2023-12-20T02:18:06;9.38;;;3.17;;
81306;SDS011;70775;50.846;3.224;2023-12-20T02:20:33;13.77;;;3.53;;
81306;SDS011;70775;50.846;3.224;2023-12-20T02:22:58;21.65;;;3.75;;
81306;SDS011;70775;50.846;3.224;2023-12-20T02:25:29;14.23;;;3.05;;
81306;SDS011;70775;50.846;3.224;2023-12-20T02:27:55;20.75;;;3.72;;
81306;SDS011;70775;50.846;3.224;2023-12-20T02:33:14;11.23;;;3.38;;
81306;SDS011;70775;50.846;3.224;2023-12-20T02:35:40;16.42;;;3.45;;
81306;SDS011;70775;50.846;3.224;2023-12-20T02:38:12;17.48;;;4.55;;
81306;SDS011;70775;50.846;3.224;2023-12-20T02:40:37;13.02;;;3.55;;
81306;SDS011;70775;50.846;3.224;2023-12-20T02:48:07;15.23;;;3.67;;
81306;SDS011;70775;50.846;3.224;2023-12-20T02:50:33;21.52;;;3.95;;
81306;SDS011;70775;50.846;3.224;2023-12-20T02:53:06;19.17;;;3.42;;
81306;SDS011;70775;50.846;3.224;2023-12-20T02:55:31;24.70;;;4.50;;
81306;SDS011;70775;50.846;3.224;2023-12-20T02:57:57;23.52;;;5.10;;
81306;SDS011;70775;50.846;3.224;2023-12-20T03:03:37;13.05;;;3.30;;
81306;SDS011;70775;50.846;3.224;2023-12-20T03:06:21;14.88;;;3.42;;
81306;SDS011;70775;50.846;3.224;2023-12-20T03:11:31;20.45;;;5.40;;
81306;SDS011;70775;50.846;3.224;2023-12-20T03:13:57;16.40;;;4.15;;
81306;SDS011;70775;50.846;3.224;2023-12-20T03:16:23;19.85;;;3.17;;
81306;SDS011;70775;50.846;3.224;2023-12-20T03:18:49;20.00;;;4.63;;
81306;SDS011;70775;50.846;3.224;2023-12-20T03:21:14;25.55;;;4.28;;
81306;SDS011;70775;50.846;3.224;2023-12-20T03:23:40;11.73;;;2.97;;
81306;SDS011;70775;50.846;3.224;2023-12-20T03:26:06;18.63;;;3.75;;
81306;SDS011;70775;50.846;3.224;2023-12-20T03:28:48;23.10;;;4.47;;
81306;SDS011;70775;50.846;3.224;2023-12-20T03:31:14;25.55;;;4.45;;
81306;SDS011;70775;50.846;3.224;2023-12-20T03:36:27;22.40;;;4.10;;
81306;SDS011;70775;50.846;3.224;2023-12-20T03:38:52;24.83;;;4.22;;
81306;SDS011;70775;50.846;3.224;2023-12-20T03:41:18;14.32;;;3.88;;
81306;SDS011;70775;50.846;3.224;2023-12-20T03:43:52;21.30;;;3.50;;
81306;SDS011;70775;50.846;3.224;2023-12-20T03:49:06;12.55;;;3.38;;
81306;SDS011;70775;50.846;3.224;2023-12-20T03:51:31;21.20;;;4.03;;
81306;SDS011;70775;50.846;3.224;2023-12-20T03:53:57;15.48;;;3.67;;
81306;SDS011;70775;50.846;3.224;2023-12-20T03:56:23;16.13;;;3.13;;
81306;SDS011;70775;50.846;3.224;2023-12-20T03:58:48;17.42;;;4.05;;
81306;SDS011;70775;50.846;3.224;2023-12-20T04:01:14;17.52;;;4.07;;
81306;SDS011;70775;50.846;3.224;2023-12-20T04:03:39;13.23;;;3.17;;
81306;SDS011;70775;50.846;3.224;2023-12-20T04:06:05;19.60;;;3.95;;
81306;SDS011;70775;50.846;3.224;2023-12-20T04:08:39;20.08;;;4.57;;
81306;SDS011;70775;50.846;3.224;2023-12-20T04:11:12;22.45;;;4.13;;
81306;SDS011;70775;50.846;3.224;2023-12-20T04:19:14;17.50;;;3.00;;
81306;SDS011;70775;50.846;3.224;2023-12-20T04:21:39;11.38;;;2.85;;
81306;SDS011;70775;50.846;3.224;2023-12-20T04:24:15;14.15;;;3.63;;
81306;SDS011;70775;50.846;3.224;2023-12-20T04:26:41;17.67;;;2.92;;
81306;SDS011;70775;50.846;3.224;2023-12-20T04:29:06;22.25;;;5.10;;
81306;SDS011;70775;50.846;3.224;2023-12-20T04:37:30;19.88;;;3.22;;
81306;SDS011;70775;50.846;3.224;2023-12-20T04:39:56;16.17;;;3.45;;
81306;SDS011;70775;50.846;3.224;2023-12-20T04:42:21;19.10;;;3.40;;
81306;SDS011;70775;50.846;3.224;2023-12-20T04:44:47;17.60;;;4.18;;
81306;SDS011;70775;50.846;3.224;2023-12-20T04:49:43;25.45;;;3.95;;
81306;SDS011;70775;50.846;3.224;2023-12-20T04:52:09;21.90;;;2.97;;
81306;SDS011;70775;50.846;3.224;2023-12-20T04:54:42;25.95;;;4.40;;
81306;SDS011;70775;50.846;3.224;2023-12-20T04:57:08;23.05;;;4.07;;
81306;SDS011;70775;50.846;3.224;2023-12-20T04:59:34;18.65;;;3.30;;
81306;SDS011;70775;50.846;3.224;2023-12-20T05:05:02;22.42;;;4.55;;
81306;SDS011;70775;50.846;3.224;2023-12-20T05:07:45;17.75;;;3.63;;
81306;SDS011;70775;50.846;3.224;2023-12-20T05:10:11;13.07;;;2.85;;
81306;SDS011;70775;50.846;3.224;2023-12-20T05:12:40;13.82;;;3.03;;
81306;SDS011;70775;50.846;3.224;2023-12-20T05:15:06;21.38;;;3.15;;
81306;SDS011;70775;50.846;3.224;2023-12-20T05:17:32;20.35;;;3.50;;
81306;SDS011;70775;50.846;3.224;2023-12-20T05:19:58;25.35;;;3.58;;
81306;SDS011;70775;50.846;3.224;2023-12-20T05:22:23;18.30;;;3.28;;
81306;SDS011;70775;50.846;3.224;2023-12-20T05:24:51;13.88;;;3.15;;
81306;SDS011;70775;50.846;3.224;2023-12-20T05:27:17;12.55;;;2.85;;
81306;SDS011;70775;50.846;3.224;2023-12-20T05:29:42;8.60;;;2.25;;
81306;SDS011;70775;50.846;3.224;2023-12-20T05:32:08;8.65;;;2.08;;
81306;SDS011;70775;50.846;3.224;2023-12-20T05:34:34;14.60;;;3.03;;
81306;SDS011;70775;50.846;3.224;2023-12-20T05:37:07;14.88;;;3.42;;
81306;SDS011;70775;50.846;3.224;2023-12-20T05:39:33;18.23;;;3.83;;
81306;SDS011;70775;50.846;3.224;2023-12-20T05:41:58;18.88;;;2.95;;
81306;SDS011;70775;50.846;3.224;2023-12-20T05:44:24;11.57;;;3.13;;
81306;SDS011;70775;50.846;3.224;2023-12-20T05:46:50;10.20;;;3.53;;
81306;SDS011;70775;50.846;3.224;2023-12-20T05:49:17;18.17;;;2.72;;
81306;SDS011;70775;50.846;3.224;2023-12-20T05:54:27;15.75;;;3.38;;
81306;SDS011;70775;50.846;3.224;2023-12-20T05:57:11;12.00;;;3.20;;
81306;SDS011;70775;50.846;3.224;2023-12-20T05:59:36;15.60;;;3.00;;
81306;SDS011;70775;50.846;3.224;2023-12-20T06:02:03;23.15;;;4.20;;
81306;SDS011;70775;50.846;3.224;2023-12-20T06:04:29;18.08;;;3.15;;
81306;SDS011;70775;50.846;3.224;2023-12-20T06:06:55;17.13;;;3.75;;
81306;SDS011;70775;50.846;3.224;2023-12-20T06:09:21;14.18;;;3.30;;
81306;SDS011;70775;50.846;3.224;2023-12-20T06:12:02;23.48;;;3.90;;
81306;SDS011;70775;50.846;3.224;2023-12-20T06:14:42;8.82;;;2.35;;
81306;SDS011;70775;50.846;3.224;2023-12-20T06:17:07;13.85;;;2.42;;
81306;SDS011;70775;50.846;3.224;2023-12-20T06:19:33;9.55;;;3.17;;
81306;SDS011;70775;50.846;3.224;2023-12-20T06:21:58;14.07;;;3.15;;
81306;SDS011;70775;50.846;3.224;2023-12-20T06:24:24;16.13;;;3.17;;
81306;SDS011;70775;50.846;3.224;2023-12-20T06:26:52;15.40;;;3.35;;
81306;SDS011;70775;50.846;3.224;2023-12-20T06:29:19;13.25;;;4.05;;
81306;SDS011;70775;50.846;3.224;2023-12-20T06:31:44;14.18;;;4.55;;
81306;SDS011;70775;50.846;3.224;2023-12-20T06:34:10;16.90;;;3.15;;
81306;SDS011;70775;50.846;3.224;2023-12-20T06:39:20;15.40;;;4.20;;
81306;SDS011;70775;50.846;3.224;2023-12-20T06:41:52;20.98;;;4.15;;
81306;SDS011;70775;50.846;3.224;2023-12-20T06:44:18;12.23;;;3.95;;
81306;SDS011;70775;50.846;3.224;2023-12-20T06:46:44;12.32;;;4.10;;
81306;SDS011;70775;50.846;3.224;2023-12-20T06:49:09;9.20;;;3.83;;
81306;SDS011;70775;50.846;3.224;2023-12-20T06:51:38;16.75;;;4.07;;
81306;SDS011;70775;50.846;3.224;2023-12-20T06:54:04;24.15;;;4.40;;
81306;SDS011;70775;50.846;3.224;2023-12-20T06:56:30;12.45;;;4.15;;
81306;SDS011;70775;50.846;3.224;2023-12-20T06:58:58;17.27;;;4.60;;
81306;SDS011;70775;50.846;3.224;2023-12-20T07:01:25;16.38;;;4.53;;
81306;SDS011;70775;50.846;3.224;2023-12-20T07:03:53;13.73;;;3.95;;
81306;SDS011;70775;50.846;3.224;2023-12-20T07:06:21;20.48;;;5.65;;
81306;SDS011;70775;50.846;3.224;2023-12-20T07:08:52;13.18;;;5.47;;
81306;SDS011;70775;50.846;3.224;2023-12-20T07:11:19;20.67;;;5.63;;
81306;SDS011;70775;50.846;3.224;2023-12-20T07:13:47;14.50;;;3.53;;
81306;SDS011;70775;50.846;3.224;2023-12-20T07:16:15;14.27;;;4.32;;
81306;SDS011;70775;50.846;3.224;2023-12-20T07:18:43;19.75;;;5.68;;
81306;SDS011;70775;50.846;3.224;2023-12-20T07:21:11;14.07;;;5.13;;
81306;SDS011;70775;50.846;3.224;2023-12-20T07:23:41;19.58;;;4.95;;
81306;SDS011;70775;50.846;3.224;2023-12-20T07:26:09;16.63;;;5.05;;
81306;SDS011;70775;50.846;3.224;2023-12-20T07:28:37;23.52;;;7.55;;
81306;SDS011;70775;50.846;3.224;2023-12-20T07:31:06;23.13;;;5.30;;
81306;SDS011;70775;50.846;3.224;2023-12-20T07:33:34;17.15;;;4.25;;
81306;SDS011;70775;50.846;3.224;2023-12-20T07:36:01;22.48;;;6.30;;
81306;SDS011;70775;50.846;3.224;2023-12-20T07:38:31;20.08;;;5.90;;
81306;SDS011;70775;50.846;3.224;2023-12-20T07:41:02;33.05;;;7.68;;
81306;SDS011;70775;50.846;3.224;2023-12-20T07:43:30;20.60;;;6.55;;
81306;SDS011;70775;50.846;3.224;2023-12-20T07:46:03;23.60;;;7.50;;
81306;SDS011;70775;50.846;3.224;2023-12-20T07:48:33;20.13;;;8.38;;
81306;SDS011;70775;50.846;3.224;2023-12-20T07:51:02;15.95;;;5.63;;
81306;SDS011;70775;50.846;3.224;2023-12-20T07:53:34;24.98;;;6.55;;
81306;SDS011;70775;50.846;3.224;2023-12-20T07:56:12;24.77;;;8.18;;
81306;SDS011;70775;50.846;3.224;2023-12-20T07:58:44;27.77;;;9.75;;
81306;SDS011;70775;50.846;3.224;2023-12-20T08:01:15;24.77;;;8.18;;
81306;SDS011;70775;50.846;3.224;2023-12-20T08:03:44;24.50;;;7.95;;
81306;SDS011;70775;50.846;3.224;2023-12-20T08:06:12;32.17;;;8.27;;
81306;SDS011;70775;50.846;3.224;2023-12-20T08:08:40;37.55;;;9.05;;
81306;SDS011;70775;50.846;3.224;2023-12-20T08:11:08;33.58;;;8.60;;
81306;SDS011;70775;50.846;3.224;2023-12-20T08:13:36;26.55;;;7.05;;
81306;SDS011;70775;50.846;3.224;2023-12-20T08:16:04;40.05;;;12.80;;
81306;SDS011;70775;50.846;3.224;2023-12-20T08:18:32;30.35;;;9.80;;
81306;SDS011;70775;50.846;3.224;2023-12-20T08:21:00;27.83;;;8.82;;
81306;SDS011;70775;50.846;3.224;2023-12-20T08:26:33;41.95;;;11.55;;
81306;SDS011;70775;50.846;3.224;2023-12-20T08:29:05;27.90;;;8.93;;
81306;SDS011;70775;50.846;3.224;2023-12-20T08:31:33;25.80;;;7.75;;
81306;SDS011;70775;50.846;3.224;2023-12-20T08:34:01;15.73;;;8.70;;
81306;SDS011;70775;50.846;3.224;2023-12-20T08:36:29;21.35;;;9.57;;
81306;SDS011;70775;50.846;3.224;2023-12-20T08:38:57;28.75;;;14.27;;
81306;SDS011;70775;50.846;3.224;2023-12-20T08:41:26;31.02;;;11.30;;
81306;SDS011;70775;50.846;3.224;2023-12-20T08:43:54;22.95;;;10.07;;
81306;SDS011;70775;50.846;3.224;2023-12-20T08:46:22;23.35;;;8.80;;
81306;SDS011;70775;50.846;3.224;2023-12-20T08:48:49;21.08;;;8.02;;
81306;SDS011;70775;50.846;3.224;2023-12-20T08:51:20;27.23;;;7.35;;
81306;SDS011;70775;50.846;3.224;2023-12-20T08:53:51;22.73;;;11.88;;
81306;SDS011;70775;50.846;3.224;2023-12-20T08:56:26;24.02;;;11.77;;
81306;SDS011;70775;50.846;3.224;2023-12-20T08:58:54;17.92;;;6.68;;
81306;SDS011;70775;50.846;3.224;2023-12-20T09:01:21;28.35;;;9.80;;
81306;SDS011;70775;50.846;3.224;2023-12-20T09:03:46;16.08;;;5.07;;
81306;SDS011;70775;50.846;3.224;2023-12-20T09:06:12;18.25;;;6.10;;
81306;SDS011;70775;50.846;3.224;2023-12-20T09:11:35;15.80;;;5.50;;
81306;SDS011;70775;50.846;3.224;2023-12-20T09:14:00;16.10;;;4.55;;
81306;SDS011;70775;50.846;3.224;2023-12-20T09:16:26;10.27;;;3.65;;
81306;SDS011;70775;50.846;3.224;2023-12-20T09:18:52;13.18;;;4.32;;
81306;SDS011;70775;50.846;3.224;2023-12-20T09:21:17;18.98;;;4.53;;
81306;SDS011;70775;50.846;3.224;2023-12-20T09:23:43;21.20;;;5.25;;
81306;SDS011;70775;50.846;3.224;2023-12-20T09:26:09;14.60;;;3.15;;
81306;SDS011;70775;50.846;3.224;2023-12-20T09:28:34;14.68;;;4.43;;
81306;SDS011;70775;50.846;3.224;2023-12-20T09:31:02;27.63;;;5.05;;
81306;SDS011;70775;50.846;3.224;2023-12-20T09:33:28;20.00;;;5.55;;
81306;SDS011;70775;50.846;3.224;2023-12-20T09:35:54;17.42;;;5.10;;
81306;SDS011;70775;50.846;3.224;2023-12-20T09:38:20;15.35;;;3.10;;
81306;SDS011;70775;50.846;3.224;2023-12-20T09:40:45;20.23;;;4.22;;
81306;SDS011;70775;50.846;3.224;2023-12-20T09:43:13;19.35;;;4.28;;
81306;SDS011;70775;50.846;3.224;2023-12-20T09:45:42;16.88;;;4.47;;
81306;SDS011;70775;50.846;3.224;2023-12-20T09:48:11;15.70;;;5.95;;
81306;SDS011;70775;50.846;3.224;2023-12-20T09:50:41;16.90;;;4.68;;
81306;SDS011;70775;50.846;3.224;2023-12-20T09:53:07;22.42;;;3.92;;
81306;SDS011;70775;50.846;3.224;2023-12-20T09:55:35;23.95;;;5.20;;
81306;SDS011;70775;50.846;3.224;2023-12-20T09:58:01;23.02;;;5.32;;
81306;SDS011;70775;50.846;3.224;2023-12-20T10:00:27;13.32;;;4.13;;
81306;SDS011;70775;50.846;3.224;2023-12-20T10:02:56;14.60;;;4.25;;
81306;SDS011;70775;50.846;3.224;2023-12-20T10:05:32;18.80;;;4.38;;
81306;SDS011;70775;50.846;3.224;2023-12-20T10:07:59;20.77;;;4.10;;
81306;SDS011;70775;50.846;3.224;2023-12-20T10:10:25;10.48;;;2.97;;
81306;SDS011;70775;50.846;3.224;2023-12-20T10:13:05;13.45;;;4.00;;
81306;SDS011;70775;50.846;3.224;2023-12-20T10:15:34;11.35;;;3.30;;
81306;SDS011;70775;50.846;3.224;2023-12-20T10:18:04;10.73;;;3.40;;
81306;SDS011;70775;50.846;3.224;2023-12-20T10:20:30;24.45;;;5.20;;
81306;SDS011;70775;50.846;3.224;2023-12-20T10:22:57;22.80;;;5.85;;
81306;SDS011;70775;50.846;3.224;2023-12-20T10:25:24;11.82;;;3.88;;
81306;SDS011;70775;50.846;3.224;2023-12-20T10:27:50;19.20;;;3.83;;
81306;SDS011;70775;50.846;3.224;2023-12-20T10:30:33;14.30;;;3.80;;
81306;SDS011;70775;50.846;3.224;2023-12-20T10:32:58;18.05;;;3.83;;
81306;SDS011;70775;50.846;3.224;2023-12-20T10:35:24;17.55;;;3.30;;
81306;SDS011;70775;50.846;3.224;2023-12-20T10:41:00;21.52;;;3.22;;
81306;SDS011;70775;50.846;3.224;2023-12-20T10:43:28;15.27;;;3.17;;
81306;SDS011;70775;50.846;3.224;2023-12-20T10:45:56;22.38;;;3.97;;
81306;SDS011;70775;50.846;3.224;2023-12-20T10:48:22;25.55;;;4.45;;
81306;SDS011;70775;50.846;3.224;2023-12-20T10:50:54;15.38;;;3.40;;
81306;SDS011;70775;50.846;3.224;2023-12-20T10:53:21;22.05;;;4.25;;
81306;SDS011;70775;50.846;3.224;2023-12-20T10:55:47;21.23;;;4.43;;
81306;SDS011;70775;50.846;3.224;2023-12-20T10:58:15;12.07;;;4.18;;
81306;SDS011;70775;50.846;3.224;2023-12-20T11:00:43;14.02;;;3.58;;
81306;SDS011;70775;50.846;3.224;2023-12-20T11:03:11;16.08;;;3.65;;
81306;SDS011;70775;50.846;3.224;2023-12-20T11:05:50;11.50;;;2.60;;
81306;SDS011;70775;50.846;3.224;2023-12-20T11:08:27;18.17;;;3.75;;
81306;SDS011;70775;50.846;3.224;2023-12-20T11:13:40;15.70;;;3.25;;
81306;SDS011;70775;50.846;3.224;2023-12-20T11:16:12;20.60;;;4.00;;
81306;SDS011;70775;50.846;3.224;2023-12-20T11:18:38;17.00;;;4.55;;
81306;SDS011;70775;50.846;3.224;2023-12-20T11:21:06;13.35;;;3.58;;
81306;SDS011;70775;50.846;3.224;2023-12-20T11:32:03;18.13;;;3.42;;
81306;SDS011;70775;50.846;3.224;2023-12-20T11:34:50;15.23;;;3.00;;
81306;SDS011;70775;50.846;3.224;2023-12-20T11:37:16;19.23;;;3.70;;
81306;SDS011;70775;50.846;3.224;2023-12-20T11:39:44;14.05;;;3.33;;
81306;SDS011;70775;50.846;3.224;2023-12-20T11:44:49;21.20;;;4.60;;
81306;SDS011;70775;50.846;3.224;2023-12-20T11:47:15;14.25;;;4.10;;
81306;SDS011;70775;50.846;3.224;2023-12-20T11:49:44;10.80;;;2.30;;
81306;SDS011;70775;50.846;3.224;2023-12-20T11:52:12;12.02;;;2.50;;
81306;SDS011;70775;50.846;3.224;2023-12-20T11:54:38;8.00;;;2.92;;
81306;SDS011;70775;50.846;3.224;2023-12-20T11:57:09;12.23;;;3.90;;
81306;SDS011;70775;50.846;3.224;2023-12-20T11:59:36;12.27;;;3.65;;
81306;SDS011;70775;50.846;3.224;2023-12-20T12:02:01;19.88;;;3.13;;
81306;SDS011;70775;50.846;3.224;2023-12-20T12:04:28;11.10;;;2.60;;
81306;SDS011;70775;50.846;3.224;2023-12-20T12:06:53;13.98;;;2.67;;
81306;SDS011;70775;50.846;3.224;2023-12-20T12:09:19;17.75;;;3.60;;
81306;SDS011;70775;50.846;3.224;2023-12-20T12:11:45;11.57;;;3.25;;
81306;SDS011;70775;50.846;3.224;2023-12-20T12:14:22;21.65;;;4.60;;
81306;SDS011;70775;50.846;3.224;2023-12-20T12:16:49;13.38;;;2.95;;
81306;SDS011;70775;50.846;3.224;2023-12-20T12:19:21;22.02;;;3.30;;
81306;SDS011;70775;50.846;3.224;2023-12-20T12:21:48;25.50;;;3.83;;
81306;SDS011;70775;50.846;3.224;2023-12-20T12:24:35;24.33;;;4.28;;
81306;SDS011;70775;50.846;3.224;2023-12-20T12:27:08;10.48;;;2.58;;
81306;SDS011;70775;50.846;3.224;2023-12-20T12:29:34;29.73;;;3.80;;
81306;SDS011;70775;50.846;3.224;2023-12-20T12:32:00;12.10;;;2.72;;
81306;SDS011;70775;50.846;3.224;2023-12-20T12:34:29;14.90;;;3.08;;
81306;SDS011;70775;50.846;3.224;2023-12-20T12:36:55;12.82;;;3.05;;
81306;SDS011;70775;50.846;3.224;2023-12-20T12:41:52;17.02;;;3.20;;
81306;SDS011;70775;50.846;3.224;2023-12-20T12:44:27;19.23;;;3.90;;
81306;SDS011;70775;50.846;3.224;2023-12-20T12:46:53;19.95;;;3.30;;
81306;SDS011;70775;50.846;3.224;2023-12-20T12:49:19;23.83;;;3.92;;
81306;SDS011;70775;50.846;3.224;2023-12-20T12:51:48;17.58;;;3.35;;
81306;SDS011;70775;50.846;3.224;2023-12-20T12:54:14;15.73;;;3.20;;
81306;SDS011;70775;50.846;3.224;2023-12-20T12:56:54;20.63;;;3.58;;
81306;SDS011;70775;50.846;3.224;2023-12-20T12:59:21;13.52;;;2.63;;
81306;SDS011;70775;50.846;3.224;2023-12-20T13:01:47;14.40;;;3.70;;
81306;SDS011;70775;50.846;3.224;2023-12-20T13:04:13;19.27;;;3.40;;
81306;SDS011;70775;50.846;3.224;2023-12-20T13:06:39;20.67;;;3.53;;
81306;SDS011;70775;50.846;3.224;2023-12-20T13:09:11;19.83;;;4.13;;
81306;SDS011;70775;50.846;3.224;2023-12-20T13:11:36;18.75;;;4.57;;
81306;SDS011;70775;50.846;3.224;2023-12-20T13:14:02;18.80;;;3.88;;
81306;SDS011;70775;50.846;3.224;2023-12-20T13:16:28;16.30;;;3.20;;
81306;SDS011;70775;50.846;3.224;2023-12-20T13:21:54;13.90;;;3.63;;
81306;SDS011;70775;50.846;3.224;2023-12-20T13:27:17;12.45;;;3.60;;
81306;SDS011;70775;50.846;3.224;2023-12-20T13:29:43;10.68;;;3.72;;
81306;SDS011;70775;50.846;3.224;2023-12-20T13:32:25;18.73;;;3.45;;
81306;SDS011;70775;50.846;3.224;2023-12-20T13:35:04;12.52;;;3.40;;
81306;SDS011;70775;50.846;3.224;2023-12-20T13:40:22;7.95;;;2.70;;
81306;SDS011;70775;50.846;3.224;2023-12-20T13:42:48;13.73;;;2.55;;
81306;SDS011;70775;50.846;3.224;2023-12-20T13:45:14;9.10;;;1.90;;
81306;SDS011;70775;50.846;3.224;2023-12-20T13:50:39;16.13;;;3.08;;
81306;SDS011;70775;50.846;3.224;2023-12-20T13:53:09;15.85;;;3.55;;
81306;SDS011;70775;50.846;3.224;2023-12-20T13:55:36;17.35;;;3.67;;
81306;SDS011;70775;50.846;3.224;2023-12-20T13:58:01;9.68;;;2.47;;
81306;SDS011;70775;50.846;3.224;2023-12-20T14:00:27;23.88;;;3.75;;
81306;SDS011;70775;50.846;3.224;2023-12-20T14:03:01;16.30;;;2.67;;
81306;SDS011;70775;50.846;3.224;2023-12-20T14:05:27;12.13;;;2.70;;
81306;SDS011;70775;50.846;3.224;2023-12-20T14:07:53;13.70;;;3.05;;
81306;SDS011;70775;50.846;3.224;2023-12-20T14:10:18;9.60;;;3.17;;
81306;SDS011;70775;50.846;3.224;2023-12-20T14:12:44;13.52;;;2.85;;
81306;SDS011;70775;50.846;3.224;2023-12-20T14:15:11;18.35;;;3.88;;
81306;SDS011;70775;50.846;3.224;2023-12-20T14:17:38;10.25;;;3.20;;
81306;SDS011;70775;50.846;3.224;2023-12-20T14:20:09;12.05;;;2.78;;
81306;SDS011;70775;50.846;3.224;2023-12-20T14:22:38;12.88;;;3.28;;
81306;SDS011;70775;50.846;3.224;2023-12-20T14:25:04;12.95;;;3.20;;
81306;SDS011;70775;50.846;3.224;2023-12-20T14:27:31;14.85;;;3.00;;
81306;SDS011;70775;50.846;3.224;2023-12-20T14:29:57;15.68;;;2.78;;
81306;SDS011;70775;50.846;3.224;2023-12-20T14:32:23;11.48;;;2.78;;
81306;SDS011;70775;50.846;3.224;2023-12-20T14:34:51;11.93;;;3.72;;
81306;SDS011;70775;50.846;3.224;2023-12-20T14:37:17;12.45;;;3.13;;
81306;SDS011;70775;50.846;3.224;2023-12-20T14:39:42;14.30;;;3.13;;
81306;SDS011;70775;50.846;3.224;2023-12-20T14:42:08;15.90;;;3.30;;
81306;SDS011;70775;50.846;3.224;2023-12-20T14:44:42;20.42;;;3.75;;
81306;SDS011;70775;50.846;3.224;2023-12-20T14:47:08;15.35;;;3.17;;
81306;SDS011;70775;50.846;3.224;2023-12-20T14:49:33;11.50;;;3.15;;
81306;SDS011;70775;50.846;3.224;2023-12-20T14:51:59;14.23;;;4.07;;
81306;SDS011;70775;50.846;3.224;2023-12-20T14:54:25;12.55;;;2.88;;
81306;SDS011;70775;50.846;3.224;2023-12-20T14:56:51;11.55;;;3.45;;
81306;SDS011;70775;50.846;3.224;2023-12-20T14:59:16;21.83;;;3.70;;
81306;SDS011;70775;50.846;3.224;2023-12-20T15:01:44;9.88;;;2.55;;
81306;SDS011;70775;50.846;3.224;2023-12-20T15:04:10;25.08;;;3.75;;
81306;SDS011;70775;50.846;3.224;2023-12-20T15:06:36;16.40;;;3.40;;
81306;SDS011;70775;50.846;3.224;2023-12-20T15:09:02;14.65;;;3.08;;
81306;SDS011;70775;50.846;3.224;2023-12-20T15:11:32;12.88;;;4.20;;
81306;SDS011;70775;50.846;3.224;2023-12-20T15:13:57;9.82;;;2.83;;
81306;SDS011;70775;50.846;3.224;2023-12-20T15:16:24;23.73;;;4.32;;
81306;SDS011;70775;50.846;3.224;2023-12-20T15:18:50;15.13;;;3.35;;
81306;SDS011;70775;50.846;3.224;2023-12-20T15:21:16;13.02;;;3.45;;
81306;SDS011;70775;50.846;3.224;2023-12-20T15:23:43;20.33;;;3.88;;
81306;SDS011;70775;50.846;3.224;2023-12-20T15:26:17;12.80;;;4.20;;
81306;SDS011;70775;50.846;3.224;2023-12-20T15:28:44;19.98;;;4.25;;
81306;SDS011;70775;50.846;3.224;2023-12-20T15:31:20;21.73;;;4.28;;
81306;SDS011;70775;50.846;3.224;2023-12-20T15:33:51;16.13;;;4.25;;
81306;SDS011;70775;50.846;3.224;2023-12-20T15:36:17;23.00;;;6.05;;
81306;SDS011;70775;50.846;3.224;2023-12-20T15:38:43;14.02;;;3.60;;
81306;SDS011;70775;50.846;3.224;2023-12-20T15:41:18;15.02;;;3.10;;
81306;SDS011;70775;50.846;3.224;2023-12-20T15:43:44;18.50;;;3.78;;
81306;SDS011;70775;50.846;3.224;2023-12-20T15:48:56;14.55;;;3.83;;
81306;SDS011;70775;50.846;3.224;2023-12-20T15:51:22;20.05;;;4.05;;
81306;SDS011;70775;50.846;3.224;2023-12-20T15:53:47;20.00;;;4.90;;
81306;SDS011;70775;50.846;3.224;2023-12-20T15:56:14;16.65;;;4.13;;
81306;SDS011;70775;50.846;3.224;2023-12-20T15:58:41;16.88;;;5.20;;
81306;SDS011;70775;50.846;3.224;2023-12-20T16:01:07;15.32;;;4.07;;
81306;SDS011;70775;50.846;3.224;2023-12-20T16:03:40;20.88;;;4.03;;
81306;SDS011;70775;50.846;3.224;2023-12-20T16:06:17;13.50;;;4.25;;
81306;SDS011;70775;50.846;3.224;2023-12-20T16:08:42;16.88;;;5.20;;
81306;SDS011;70775;50.846;3.224;2023-12-20T16:11:08;21.02;;;5.38;;
81306;SDS011;70775;50.846;3.224;2023-12-20T16:13:35;22.70;;;4.70;;
81306;SDS011;70775;50.846;3.224;2023-12-20T16:16:03;22.42;;;5.80;;
81306;SDS011;70775;50.846;3.224;2023-12-20T16:18:29;16.95;;;4.75;;
81306;SDS011;70775;50.846;3.224;2023-12-20T16:20:56;20.73;;;6.57;;